Time;durP1;ratioP1;P1;durP2;ratioP2;P2;SDS_P1;SDS_P2;PMS_P1;PMS_P2;Temp;Humidity;BMP_temperature;BMP_pressure;BME280_temperature;BME280_humidity;BME280_pressure;Samples;Min_cycle;Max_cycle;Signal;HPM_P1;HPM_P2
2021/04/19 00:04:22;;;;;;;19.52;15.90;;;;;;;;;;9998925;29;20084;-60
2021/04/19 00:09:20;;;;;;;16.05;12.85;;;;;;;;;;9998512;29;20044;-60
2021/04/19 00:14:17;;;;;;;15.82;14.18;;;;;;;;;;9998545;29;20110;-61
2021/04/19 00:19:14;;;;;;;17.55;13.27;;;;;;;;;;9998131;29;20526;-61
2021/04/19 00:24:13;;;;;;;14.63;11.93;;;;;;;;;;9998648;29;20075;-60
2021/04/19 00:29:10;;;;;;;17.13;14.25;;;;;;;;;;9998528;29;20442;-60
2021/04/19 00:34:07;;;;;;;20.42;13.75;;;;;;;;;;10003971;29;20414;-61
2021/04/19 00:39:05;;;;;;;21.42;15.52;;;;;;;;;;10006446;29;20048;-61
2021/04/19 00:44:04;;;;;;;19.30;17.30;;;;;;;;;;10005565;29;20119;-60
2021/04/19 00:49:01;;;;;;;17.70;15.88;;;;;;;;;;10005753;29;20056;-60
2021/04/19 00:53:59;;;;;;;20.98;17.35;;;;;;;;;;10005817;29;20055;-59
2021/04/19 00:58:57;;;;;;;21.38;15.82;;;;;;;;;;10005674;29;20075;-61
2021/04/19 01:03:55;;;;;;;18.98;16.25;;;;;;;;;;10004821;29;20063;-62
2021/04/19 01:08:53;;;;;;;23.38;18.38;;;;;;;;;;10005270;29;20056;-60
2021/04/19 01:13:50;;;;;;;20.92;18.13;;;;;;;;;;10004505;29;20079;-61
2021/04/19 01:18:55;;;;;;;20.58;17.35;;;;;;;;;;10003598;29;20087;-61
2021/04/19 01:23:53;;;;;;;20.38;14.77;;;;;;;;;;10004227;29;20055;-61
2021/04/19 01:28:53;;;;;;;18.67;15.93;;;;;;;;;;10002139;29;20067;-60
2021/04/19 01:33:52;;;;;;;21.50;15.35;;;;;;;;;;10004477;29;20145;-60
2021/04/19 01:38:52;;;;;;;74.93;42.88;;;;;;;;;;10002516;29;20518;-61
2021/04/19 01:43:51;;;;;;;24.77;16.38;;;;;;;;;;10001655;29;20051;-60
2021/04/19 01:48:49;;;;;;;16.17;14.18;;;;;;;;;;10001815;29;20056;-61
2021/04/19 01:53:47;;;;;;;23.35;17.50;;;;;;;;;;10003379;29;20052;-61
2021/04/19 01:58:45;;;;;;;34.13;25.58;;;;;;;;;;10001874;29;20477;-60
2021/04/19 02:04:00;;;;;;;25.27;16.17;;;;;;;;;;10003272;29;20060;-62
2021/04/19 02:09:08;;;;;;;19.98;15.57;;;;;;;;;;10001134;29;20067;-60
2021/04/19 02:14:08;;;;;;;21.40;17.05;;;;;;;;;;10002671;29;20055;-60
2021/04/19 02:19:14;;;;;;;20.73;18.63;;;;;;;;;;10001371;29;20086;-60
2021/04/19 02:24:14;;;;;;;22.17;18.30;;;;;;;;;;10001755;29;20087;-60
2021/04/19 02:29:13;;;;;;;19.75;15.73;;;;;;;;;;10001815;29;20102;-60
2021/04/19 02:34:14;;;;;;;22.58;18.70;;;;;;;;;;10001098;29;20051;-60
2021/04/19 02:39:13;;;;;;;25.27;19.42;;;;;;;;;;10001706;29;20086;-60
2021/04/19 02:44:10;;;;;;;27.40;19.27;;;;;;;;;;10001821;29;20082;-60
2021/04/19 02:49:24;;;;;;;19.75;16.38;;;;;;;;;;10000473;29;20099;-60
2021/04/19 02:54:22;;;;;;;25.23;16.50;;;;;;;;;;10000957;29;20084;-60
2021/04/19 02:59:20;;;;;;;19.02;14.73;;;;;;;;;;10000739;29;20080;-60
2021/04/19 03:04:20;;;;;;;18.40;15.95;;;;;;;;;;9999608;29;20048;-60
2021/04/19 03:09:35;;;;;;;26.30;14.70;;;;;;;;;;9999377;29;20060;-60
2021/04/19 03:14:34;;;;;;;23.52;17.88;;;;;;;;;;9998722;29;20498;-60
2021/04/19 03:19:39;;;;;;;19.65;15.48;;;;;;;;;;9998707;29;20577;-60
2021/04/19 03:24:38;;;;;;;28.88;15.07;;;;;;;;;;9998750;29;20059;-60
2021/04/19 03:29:41;;;;;;;23.42;14.93;;;;;;;;;;9998036;29;20092;-60
2021/04/19 03:34:47;;;;;;;16.97;14.67;;;;;;;;;;9998270;29;20063;-60
2021/04/19 03:39:54;;;;;;;23.23;17.88;;;;;;;;;;9997658;29;20824;-60
2021/04/19 03:44:54;;;;;;;20.10;14.75;;;;;;;;;;9992290;29;20505;-59
2021/04/19 03:50:12;;;;;;;21.02;15.25;;;;;;;;;;9993735;29;20087;-60
2021/04/19 03:55:19;;;;;;;24.88;16.10;;;;;;;;;;9992422;29;20098;-60
2021/04/19 04:00:20;;;;;;;23.65;17.63;;;;;;;;;;9995238;29;20501;-61
2021/04/19 04:05:18;;;;;;;24.75;19.20;;;;;;;;;;9998369;29;20052;-61
2021/04/19 04:10:42;;;;;;;22.75;16.92;;;;;;;;;;9995727;29;20063;-61
2021/04/19 04:15:50;;;;;;;26.85;18.35;;;;;;;;;;9995302;29;20083;-60
2021/04/19 04:20:48;;;;;;;21.33;16.20;;;;;;;;;;9995409;29;20063;-60
2021/04/19 04:25:51;;;;;;;20.30;18.08;;;;;;;;;;9995296;29;20114;-61
2021/04/19 04:30:54;;;;;;;24.30;13.55;;;;;;;;;;9997264;29;20096;-60
2021/04/19 04:35:56;;;;;;;28.95;15.73;;;;;;;;;;9995455;29;20113;-61
2021/04/19 04:41:10;;;;;;;20.40;14.75;;;;;;;;;;9995326;29;20060;-61
2021/04/19 04:46:09;;;;;;;25.25;17.75;;;;;;;;;;9996867;29;20055;-60
2021/04/19 04:51:09;;;;;;;30.48;19.23;;;;;;;;;;9995833;29;20083;-61
2021/04/19 04:56:07;;;;;;;18.05;14.15;;;;;;;;;;9995819;29;20082;-61
2021/04/19 05:01:07;;;;;;;20.58;13.95;;;;;;;;;;9996027;29;20071;-61
2021/04/19 05:06:06;;;;;;;22.23;15.80;;;;;;;;;;9994582;29;20075;-61
2021/04/19 05:11:04;;;;;;;19.13;13.25;;;;;;;;;;9996485;29;20044;-60
2021/04/19 05:16:02;;;;;;;21.75;15.45;;;;;;;;;;9996723;29;20083;-62
2021/04/19 05:21:00;;;;;;;20.42;15.07;;;;;;;;;;10001295;29;20067;-60
2021/04/19 05:25:57;;;;;;;26.08;18.65;;;;;;;;;;10002346;29;20514;-60
2021/04/19 05:30:55;;;;;;;27.08;15.98;;;;;;;;;;10002557;29;20544;-60
2021/04/19 05:35:52;;;;;;;31.80;18.80;;;;;;;;;;10002461;29;20087;-60
2021/04/19 05:40:51;;;;;;;32.05;16.83;;;;;;;;;;10001423;29;20087;-60
2021/04/19 05:45:51;;;;;;;26.42;16.40;;;;;;;;;;10002451;29;20080;-61
2021/04/19 05:50:50;;;;;;;34.67;18.42;;;;;;;;;;10002225;29;20504;-60
2021/04/19 05:55:48;;;;;;;26.88;16.20;;;;;;;;;;10001339;29;20080;-61
2021/04/19 06:00:49;;;;;;;32.10;19.38;;;;;;;;;;10002238;29;20071;-61
2021/04/19 06:05:53;;;;;;;34.22;17.23;;;;;;;;;;10002293;29;20056;-59
2021/04/19 06:10:53;;;;;;;34.97;19.30;;;;;;;;;;10000930;29;20541;-59
2021/04/19 06:16:01;;;;;;;40.53;25.85;;;;;;;;;;9999246;29;20106;-61
2021/04/19 06:21:01;;;;;;;37.17;19.35;;;;;;;;;;10000889;29;20084;-61
2021/04/19 06:25:58;;;;;;;32.95;18.98;;;;;;;;;;10000886;29;20481;-61
2021/04/19 06:30:56;;;;;;;29.55;19.10;;;;;;;;;;9999519;29;20482;-61
2021/04/19 06:35:55;;;;;;;32.40;19.45;;;;;;;;;;10000745;29;20099;-60
2021/04/19 06:40:52;;;;;;;26.27;19.45;;;;;;;;;;10000829;29;20509;-62
2021/04/19 06:45:50;;;;;;;30.90;21.23;;;;;;;;;;10000815;29;20083;-62
2021/04/19 06:50:48;;;;;;;34.88;21.33;;;;;;;;;;9999898;29;20076;-61
2021/04/19 06:55:46;;;;;;;28.13;20.67;;;;;;;;;;9997997;29;20087;-61
2021/04/19 07:00:48;;;;;;;30.80;20.15;;;;;;;;;;10000313;29;20067;-61
2021/04/19 07:05:48;;;;;;;27.63;20.90;;;;;;;;;;9999482;29;20048;-61
2021/04/19 07:10:47;;;;;;;28.02;21.92;;;;;;;;;;9999584;29;20052;-61
2021/04/19 07:15:45;;;;;;;29.67;20.38;;;;;;;;;;9999699;29;20083;-61
2021/04/19 07:20:44;;;;;;;35.30;23.33;;;;;;;;;;9999572;29;20071;-61
2021/04/19 07:25:42;;;;;;;35.33;24.17;;;;;;;;;;9998655;29;20088;-61
2021/04/19 07:30:40;;;;;;;38.17;24.77;;;;;;;;;;9998437;29;20087;-61
2021/04/19 07:35:38;;;;;;;24.33;20.15;;;;;;;;;;9998741;29;20075;-62
2021/04/19 07:40:36;;;;;;;29.20;23.77;;;;;;;;;;9997820;29;20085;-61
2021/04/19 07:45:34;;;;;;;26.55;22.13;;;;;;;;;;9998026;29;20090;-61
2021/04/19 07:50:32;;;;;;;25.25;20.30;;;;;;;;;;9998243;29;20047;-61
2021/04/19 07:55:30;;;;;;;38.30;26.55;;;;;;;;;;9998141;29;20528;-60
2021/04/19 08:00:34;;;;;;;26.15;22.80;;;;;;;;;;9997816;29;20087;-60
2021/04/19 08:05:34;;;;;;;29.80;21.40;;;;;;;;;;9997833;29;20075;-61
2021/04/19 08:10:31;;;;;;;47.53;31.88;;;;;;;;;;9997962;29;20506;-61
2021/04/19 08:15:29;;;;;;;34.85;24.02;;;;;;;;;;9997195;29;20048;-61
2021/04/19 08:20:26;;;;;;;29.10;21.90;;;;;;;;;;9997807;29;20078;-61
2021/04/19 08:25:24;;;;;;;68.80;50.80;;;;;;;;;;9997676;29;20438;-61
2021/04/19 08:30:21;;;;;;;46.10;33.92;;;;;;;;;;9996927;29;20095;-61
2021/04/19 08:35:20;;;;;;;34.67;26.55;;;;;;;;;;9997667;29;20496;-61
2021/04/19 08:40:18;;;;;;;26.67;19.85;;;;;;;;;;9997290;29;20083;-61
2021/04/19 08:45:17;;;;;;;30.05;19.52;;;;;;;;;;9996554;29;20435;-61
2021/04/19 08:50:18;;;;;;;49.60;35.35;;;;;;;;;;9995156;29;20086;-59
2021/04/19 08:55:15;;;;;;;42.90;28.75;;;;;;;;;;10002621;29;20362;-61
2021/04/19 09:00:15;;;;;;;35.70;26.25;;;;;;;;;;10004807;29;20115;-61
2021/04/19 09:05:15;;;;;;;38.05;24.27;;;;;;;;;;10003634;29;20528;-61
2021/04/19 09:10:14;;;;;;;33.47;26.33;;;;;;;;;;10004666;29;20088;-60
2021/04/19 09:15:16;;;;;;;47.58;32.10;;;;;;;;;;10003906;29;20083;-61
2021/04/19 09:20:15;;;;;;;36.03;25.73;;;;;;;;;;10003346;29;20090;-62
2021/04/19 09:25:14;;;;;;;33.03;23.33;;;;;;;;;;10002895;29;20052;-60
2021/04/19 09:30:35;;;;;;;68.53;42.42;;;;;;;;;;10002694;29;20114;-61
2021/04/19 09:35:44;;;;;;;36.67;23.80;;;;;;;;;;10002918;29;20455;-61
2021/04/19 09:40:46;;;;;;;40.85;26.13;;;;;;;;;;10003041;29;20079;-61
2021/04/19 09:46:01;;;;;;;41.85;28.98;;;;;;;;;;10002071;29;20052;-62
2021/04/19 09:51:14;;;;;;;43.40;24.27;;;;;;;;;;10001706;29;20075;-61
2021/04/19 09:56:11;;;;;;;29.08;21.25;;;;;;;;;;10002487;29;20082;-61
2021/04/19 10:01:12;;;;;;;35.30;21.50;;;;;;;;;;10001903;29;20056;-60
2021/04/19 10:06:10;;;;;;;41.20;29.80;;;;;;;;;;10001486;29;20064;-60
2021/04/19 10:11:08;;;;;;;26.17;19.83;;;;;;;;;;9999918;29;20048;-61
2021/04/19 10:16:07;;;;;;;43.72;30.55;;;;;;;;;;10000785;29;20090;-61
2021/04/19 10:21:05;;;;;;;36.33;23.45;;;;;;;;;;10001056;29;20053;-60
2021/04/19 10:26:03;;;;;;;29.15;19.88;;;;;;;;;;10001422;29;20501;-61
2021/04/19 10:31:11;;;;;;;33.47;20.67;;;;;;;;;;10000638;29;20065;-62
2021/04/19 10:36:12;;;;;;;31.75;19.77;;;;;;;;;;9999538;29;20089;-61
2021/04/19 10:41:10;;;;;;;28.70;20.88;;;;;;;;;;10000466;29;20090;-61
2021/04/19 10:46:21;;;;;;;35.33;19.90;;;;;;;;;;10001089;29;20083;-60
2021/04/19 10:51:20;;;;;;;26.42;19.92;;;;;;;;;;9999100;29;20556;-61
2021/04/19 10:56:22;;;;;;;35.22;23.20;;;;;;;;;;10000537;29;20079;-61
2021/04/19 11:01:23;;;;;;;22.92;17.17;;;;;;;;;;10000390;29;20114;-61
2021/04/19 11:06:21;;;;;;;28.58;16.58;;;;;;;;;;10000339;29;20055;-61
2021/04/19 11:11:23;;;;;;;25.23;16.80;;;;;;;;;;9998922;29;20052;-61
2021/04/19 11:16:21;;;;;;;23.35;15.75;;;;;;;;;;9999194;29;20533;-60
2021/04/19 11:21:31;;;;;;;40.60;26.77;;;;;;;;;;9999455;29;20071;-61
2021/04/19 11:26:31;;;;;;;29.90;15.90;;;;;;;;;;9997937;29;20544;-61
2021/04/19 11:31:38;;;;;;;45.28;26.67;;;;;;;;;;9998572;29;20067;-61
2021/04/19 11:36:39;;;;;;;35.67;23.02;;;;;;;;;;9998244;29;20120;-61
2021/04/19 11:41:37;;;;;;;23.33;15.90;;;;;;;;;;9998370;29;20068;-61
2021/04/19 11:46:39;;;;;;;42.20;16.05;;;;;;;;;;9996798;29;20075;-62
2021/04/19 11:51:37;;;;;;;34.17;21.40;;;;;;;;;;9997656;29;20048;-63
2021/04/19 11:56:35;;;;;;;32.70;16.65;;;;;;;;;;9997555;29;20467;-61
2021/04/19 12:01:33;;;;;;;44.38;19.50;;;;;;;;;;9997682;29;20493;-59
2021/04/19 12:06:31;;;;;;;28.92;13.45;;;;;;;;;;9997772;29;20477;-61
2021/04/19 12:11:28;;;;;;;23.23;16.17;;;;;;;;;;9998146;29;20072;-60
2021/04/19 12:16:25;;;;;;;13.35;10.43;;;;;;;;;;9997649;29;20063;-61
2021/04/19 12:21:24;;;;;;;11.30;9.02;;;;;;;;;;9997156;29;20474;-61
2021/04/19 12:26:22;;;;;;;46.42;27.88;;;;;;;;;;9997810;29;20094;-62
2021/04/19 12:31:39;;;;;;;49.05;31.98;;;;;;;;;;10004310;29;20098;-60
2021/04/19 12:36:37;;;;;;;20.55;12.68;;;;;;;;;;10005453;29;20078;-62
2021/04/19 12:41:35;;;;;;;23.20;15.48;;;;;;;;;;10003968;29;20080;-62
2021/04/19 12:46:32;;;;;;;21.42;12.85;;;;;;;;;;10005081;29;20048;-61
2021/04/19 12:51:30;;;;;;;36.65;18.60;;;;;;;;;;10004879;29;20522;-59
2021/04/19 12:56:28;;;;;;;24.77;14.45;;;;;;;;;;10004865;29;20537;-62
2021/04/19 13:01:25;;;;;;;15.75;11.73;;;;;;;;;;10004620;29;20517;-60
2021/04/19 13:06:23;;;;;;;17.38;12.77;;;;;;;;;;10004324;29;20045;-60
2021/04/19 13:11:20;;;;;;;18.75;15.30;;;;;;;;;;10002398;29;20107;-61
2021/04/19 13:16:18;;;;;;;26.45;18.45;;;;;;;;;;10004226;29;20040;-60
2021/04/19 13:21:16;;;;;;;54.25;29.95;;;;;;;;;;10003208;29;20088;-61
2021/04/19 13:26:13;;;;;;;14.55;11.80;;;;;;;;;;10003164;29;20500;-60
2021/04/19 13:31:11;;;;;;;66.35;34.35;;;;;;;;;;10002971;29;20146;-60
2021/04/19 13:36:09;;;;;;;27.42;19.38;;;;;;;;;;10002855;29;20079;-60
2021/04/19 13:41:06;;;;;;;18.38;15.93;;;;;;;;;;9999916;29;20549;-60
2021/04/19 13:46:04;;;;;;;22.73;17.48;;;;;;;;;;10002890;29;20083;-61
2021/04/19 13:51:01;;;;;;;25.98;21.35;;;;;;;;;;10002153;29;20071;-60
2021/04/19 13:55:59;;;;;;;48.58;35.58;;;;;;;;;;10001857;29;20055;-60
2021/04/19 14:00:57;;;;;;;59.45;50.25;;;;;;;;;;10002111;29;20088;-60
2021/04/19 14:05:54;;;;;;;44.72;38.22;;;;;;;;;;10001647;29;20079;-62
2021/04/19 14:10:51;;;;;;;84.93;67.22;;;;;;;;;;10001704;29;20048;-62
2021/04/19 14:15:50;;;;;;;72.88;56.17;;;;;;;;;;10001790;29;20072;-62
2021/04/19 14:20:47;;;;;;;76.07;58.22;;;;;;;;;;10000989;29;20087;-61
2021/04/19 14:25:45;;;;;;;84.43;55.67;;;;;;;;;;10001085;29;20095;-61
2021/04/19 14:30:43;;;;;;;186.85;150.57;;;;;;;;;;10000826;29;20067;-62
2021/04/19 14:35:42;;;;;;;139.25;92.93;;;;;;;;;;10019211;29;20075;-62
2021/04/19 14:40:39;;;;;;;197.40;128.15;;;;;;;;;;10019633;29;20072;-61
2021/04/19 14:45:36;;;;;;;68.32;48.95;;;;;;;;;;10011427;29;20075;-60
2021/04/19 14:50:38;;;;;;;36.05;30.08;;;;;;;;;;10009458;29;20095;-59
2021/04/19 14:55:39;;;;;;;31.98;24.27;;;;;;;;;;10001783;29;20409;-61
2021/04/19 15:00:36;;;;;;;88.38;58.53;;;;;;;;;;10000532;29;20079;-61
2021/04/19 15:05:37;;;;;;;94.57;68.25;;;;;;;;;;10001308;29;20044;-60
2021/04/19 15:10:40;;;;;;;66.13;53.35;;;;;;;;;;10028391;29;20058;-61
2021/04/19 15:15:38;;;;;;;88.20;66.18;;;;;;;;;;10038614;29;20067;-60
2021/04/19 15:20:35;;;;;;;72.90;57.67;;;;;;;;;;10039510;29;20958;-61
2021/04/19 15:25:33;;;;;;;86.43;73.45;;;;;;;;;;10039191;29;20067;-61
2021/04/19 15:30:31;;;;;;;52.90;42.20;;;;;;;;;;10038306;29;20059;-61
2021/04/19 15:35:29;;;;;;;63.70;56.45;;;;;;;;;;10038427;29;20079;-60
2021/04/19 15:40:26;;;;;;;141.68;126.45;;;;;;;;;;10038271;29;20087;-61
2021/04/19 15:45:23;;;;;;;99.80;79.70;;;;;;;;;;10038093;29;20062;-60
2021/04/19 15:50:22;;;;;;;127.07;87.03;;;;;;;;;;10037636;29;20051;-58
2021/04/19 15:55:19;;;;;;;86.18;66.50;;;;;;;;;;10038415;29;20074;-60
2021/04/19 16:00:17;;;;;;;72.35;56.65;;;;;;;;;;10037520;29;20092;-57
2021/04/19 16:05:14;;;;;;;110.95;73.60;;;;;;;;;;10037722;29;20520;-60
2021/04/19 16:10:13;;;;;;;76.07;57.72;;;;;;;;;;10038079;29;20094;-60
2021/04/19 16:15:11;;;;;;;48.40;37.28;;;;;;;;;;10037736;29;20075;-59
2021/04/19 16:20:09;;;;;;;46.60;34.03;;;;;;;;;;10037550;29;20087;-61
2021/04/19 16:25:06;;;;;;;29.58;25.65;;;;;;;;;;10037074;29;20094;-61
2021/04/19 16:30:06;;;;;;;42.42;36.58;;;;;;;;;;10036728;29;20346;-62
2021/04/19 16:35:04;;;;;;;40.75;32.30;;;;;;;;;;10036306;29;20548;-61
2021/04/19 16:40:01;;;;;;;40.90;33.53;;;;;;;;;;10035430;29;20481;-61
2021/04/19 16:44:59;;;;;;;36.22;28.08;;;;;;;;;;10035081;29;20460;-61
2021/04/19 16:49:57;;;;;;;47.10;37.33;;;;;;;;;;10035215;29;20086;-61
2021/04/19 16:54:54;;;;;;;46.20;34.55;;;;;;;;;;10035048;29;20502;-61
2021/04/19 16:59:52;;;;;;;27.38;24.58;;;;;;;;;;10035672;29;20534;-61
2021/04/19 17:04:50;;;;;;;21.95;19.67;;;;;;;;;;10035950;29;20056;-61
2021/04/19 17:09:48;;;;;;;30.75;23.50;;;;;;;;;;10036756;29;20047;-61
2021/04/19 17:14:47;;;;;;;25.92;21.67;;;;;;;;;;10039713;29;20079;-61
2021/04/19 17:19:44;;;;;;;28.70;24.10;;;;;;;;;;10043514;29;20102;-61
2021/04/19 17:24:42;;;;;;;26.45;23.30;;;;;;;;;;10043381;29;20086;-61
2021/04/19 17:29:40;;;;;;;24.50;21.90;;;;;;;;;;10042665;29;20063;-60
2021/04/19 17:34:37;;;;;;;21.15;18.85;;;;;;;;;;10043454;29;20183;-61
2021/04/19 17:39:35;;;;;;;20.27;18.10;;;;;;;;;;10042886;29;20079;-59
2021/04/19 17:44:32;;;;;;;35.85;29.35;;;;;;;;;;10043072;29;20051;-61
2021/04/19 17:49:31;;;;;;;25.73;23.13;;;;;;;;;;10042248;29;20047;-61
2021/04/19 17:54:28;;;;;;;25.60;22.75;;;;;;;;;;10042313;29;20082;-60
2021/04/19 17:59:25;;;;;;;33.42;26.70;;;;;;;;;;10042225;29;20087;-61
2021/04/19 18:04:23;;;;;;;66.68;57.00;;;;;;;;;;10042035;29;20075;-61
2021/04/19 18:09:21;;;;;;;42.63;38.05;;;;;;;;;;10042278;29;20413;-61
2021/04/19 18:14:18;;;;;;;41.05;36.95;;;;;;;;;;10041932;29;20075;-63
2021/04/19 18:19:16;;;;;;;28.10;25.05;;;;;;;;;;10041344;29;20083;-61
2021/04/19 18:24:13;;;;;;;37.13;31.02;;;;;;;;;;10040813;29;20051;-61
2021/04/19 18:29:14;;;;;;;26.80;22.55;;;;;;;;;;10040394;29;20079;-62
2021/04/19 18:34:11;;;;;;;25.83;22.60;;;;;;;;;;10040449;29;20082;-61
2021/04/19 18:39:11;;;;;;;28.02;25.15;;;;;;;;;;10040578;29;20520;-60
2021/04/19 18:44:08;;;;;;;27.15;24.25;;;;;;;;;;10040393;29;20520;-62
2021/04/19 18:49:07;;;;;;;49.35;37.00;;;;;;;;;;10040037;29;20083;-61
2021/04/19 18:54:05;;;;;;;29.30;23.08;;;;;;;;;;10040256;29;20083;-61
2021/04/19 18:59:02;;;;;;;26.63;23.65;;;;;;;;;;10039589;29;20098;-61
2021/04/19 19:04:00;;;;;;;27.60;22.67;;;;;;;;;;10039812;29;20046;-62
2021/04/19 19:08:58;;;;;;;25.27;22.02;;;;;;;;;;10039259;29;20079;-60
2021/04/19 19:13:55;;;;;;;31.83;27.25;;;;;;;;;;10039323;29;20090;-61
2021/04/19 19:18:53;;;;;;;22.23;19.85;;;;;;;;;;10039188;29;20086;-61
2021/04/19 19:23:51;;;;;;;23.98;21.45;;;;;;;;;;10038445;29;20090;-62
2021/04/19 19:28:50;;;;;;;43.78;32.63;;;;;;;;;;10038682;29;20172;-61
2021/04/19 19:33:47;;;;;;;33.40;26.40;;;;;;;;;;10039001;29;20083;-61
2021/04/19 19:38:45;;;;;;;29.88;26.42;;;;;;;;;;10037153;29;20086;-61
2021/04/19 19:43:42;;;;;;;22.10;19.83;;;;;;;;;;10038449;29;20079;-61
2021/04/19 19:48:41;;;;;;;22.98;20.35;;;;;;;;;;10038403;29;20048;-60
2021/04/19 19:53:39;;;;;;;22.80;20.52;;;;;;;;;;10037608;29;20642;-61
2021/04/19 19:58:36;;;;;;;24.50;19.25;;;;;;;;;;10037488;29;20082;-61
2021/04/19 20:03:35;;;;;;;22.98;19.65;;;;;;;;;;10037924;29;20039;-61
2021/04/19 20:08:33;;;;;;;22.42;20.10;;;;;;;;;;10037362;29;20074;-60
2021/04/19 20:13:30;;;;;;;24.35;19.52;;;;;;;;;;10037594;29;20493;-61
2021/04/19 20:18:28;;;;;;;24.08;21.58;;;;;;;;;;10037398;29;20086;-61
2021/04/19 20:23:25;;;;;;;20.42;18.27;;;;;;;;;;10037159;29;20494;-61
2021/04/19 20:28:23;;;;;;;19.50;16.63;;;;;;;;;;10036923;29;20568;-62
2021/04/19 20:33:21;;;;;;;27.95;23.27;;;;;;;;;;10035811;29;20051;-62
2021/04/19 20:38:18;;;;;;;19.50;17.45;;;;;;;;;;10036975;29;20110;-62
2021/04/19 20:43:16;;;;;;;23.42;20.02;;;;;;;;;;10036422;29;20056;-62
2021/04/19 20:48:14;;;;;;;23.45;19.23;;;;;;;;;;10038004;29;20083;-62
2021/04/19 20:53:11;;;;;;;21.67;18.65;;;;;;;;;;10044285;29;20095;-62
2021/04/19 20:58:09;;;;;;;21.70;18.10;;;;;;;;;;10044224;29;20083;-62
2021/04/19 21:03:06;;;;;;;23.70;21.23;;;;;;;;;;10042967;29;20048;-62
2021/04/19 21:08:05;;;;;;;20.98;18.77;;;;;;;;;;10043798;29;20051;-62
2021/04/19 21:13:03;;;;;;;23.13;19.42;;;;;;;;;;10043730;29;20520;-61
2021/04/19 21:18:00;;;;;;;21.05;18.85;;;;;;;;;;10043327;29;20075;-61
2021/04/19 21:22:57;;;;;;;21.10;17.13;;;;;;;;;;10043249;29;20086;-61
2021/04/19 21:27:56;;;;;;;18.83;16.83;;;;;;;;;;10042983;29;20476;-60
2021/04/19 21:32:53;;;;;;;19.08;17.05;;;;;;;;;;10043169;29;20055;-62
2021/04/19 21:37:51;;;;;;;18.20;15.30;;;;;;;;;;10041126;29;20051;-61
2021/04/19 21:42:48;;;;;;;26.48;23.67;;;;;;;;;;10042253;29;20066;-62
2021/04/19 21:47:46;;;;;;;23.33;20.83;;;;;;;;;;10042420;29;20446;-61
2021/04/19 21:52:44;;;;;;;21.00;18.48;;;;;;;;;;10042336;29;20052;-61
2021/04/19 21:57:41;;;;;;;21.60;19.13;;;;;;;;;;10042173;29;20051;-59
2021/04/19 22:02:39;;;;;;;20.90;18.80;;;;;;;;;;10040642;29;20107;-61
2021/04/19 22:07:37;;;;;;;19.48;17.48;;;;;;;;;;10041904;29;20391;-60
2021/04/19 22:12:34;;;;;;;20.95;18.33;;;;;;;;;;10041989;29;20058;-60
2021/04/19 22:17:31;;;;;;;24.65;19.10;;;;;;;;;;10041501;29;20075;-61
2021/04/19 22:22:29;;;;;;;21.00;18.10;;;;;;;;;;10041058;29;20091;-61
2021/04/19 22:27:27;;;;;;;21.77;19.42;;;;;;;;;;10041072;29;20526;-61
2021/04/19 22:32:25;;;;;;;22.50;19.95;;;;;;;;;;10041219;29;20052;-61
2021/04/19 22:37:22;;;;;;;21.58;19.08;;;;;;;;;;10041043;29;20091;-60
2021/04/19 22:42:19;;;;;;;21.38;19.17;;;;;;;;;;10040484;29;20083;-61
2021/04/19 22:47:17;;;;;;;23.25;19.75;;;;;;;;;;10039928;29;20075;-61
2021/04/19 22:52:18;;;;;;;24.88;20.77;;;;;;;;;;10039968;29;20039;-61
2021/04/19 22:57:15;;;;;;;24.05;20.23;;;;;;;;;;10040044;29;20054;-61
2021/04/19 23:02:13;;;;;;;36.13;31.50;;;;;;;;;;10039564;29;20075;-61
2021/04/19 23:07:11;;;;;;;25.85;23.10;;;;;;;;;;10038992;29;20063;-61
2021/04/19 23:12:09;;;;;;;25.92;22.17;;;;;;;;;;10039035;29;20048;-61
2021/04/19 23:17:06;;;;;;;26.10;23.23;;;;;;;;;;10038893;29;20075;-61
2021/04/19 23:22:04;;;;;;;28.10;22.98;;;;;;;;;;10038699;29;20083;-61
2021/04/19 23:27:02;;;;;;;24.20;21.60;;;;;;;;;;10038523;29;20047;-61
2021/04/19 23:32:00;;;;;;;27.27;24.38;;;;;;;;;;10038761;29;20083;-61
2021/04/19 23:36:57;;;;;;;27.30;23.17;;;;;;;;;;10038046;29;20118;-62
2021/04/19 23:41:55;;;;;;;25.92;23.13;;;;;;;;;;10038031;29;20075;-62
2021/04/19 23:46:53;;;;;;;27.30;22.23;;;;;;;;;;10038438;29;20110;-62
2021/04/19 23:51:51;;;;;;;30.05;24.42;;;;;;;;;;10038284;29;20075;-61
2021/04/19 23:56:49;;;;;;;26.20;23.40;;;;;;;;;;10037328;29;20055;-62
